Terminal Aerodrome Forecast
Issued by NWS

Home | Current Version | Previous Version | Text Only | Print | Product List | Glossary On
Versions: 1 2 3 4 5 6 7 8 9 10 11 12 13 14 15 16 17 18 19 20 21 22 23
000
FTUS45 KBOU 292322
TAFBJC
TAF
KBJC 292322Z 3000/3024 08006KT P6SM SCT060 SCT120
     FM300100 13008KT P6SM VCTS SCT060CB SCT120
     FM300600 18008KT P6SM SCT120
     FM301000 VRB05KT P6SM SCT050 SCT100
     FM301500 04006KT P6SM SCT050
     FM302000 08006KT P6SM SCT080=

USA.gov is the U.S. government's official web portal to all federal, state and local government web resources and services.